sensor_id;sensor_type;location;lat;lon;timestamp;P1;durP1;ratioP1;P2;durP2;ratioP2
77012;SDS011;65946;53.130;17.982;2022-12-22T00:01:13;47.80;;;17.10;;
77012;SDS011;65946;53.130;17.982;2022-12-22T00:03:59;42.80;;;17.30;;
77012;SDS011;65946;53.130;17.982;2022-12-22T00:06:44;42.80;;;16.20;;
77012;SDS011;65946;53.130;17.982;2022-12-22T00:09:30;49.00;;;16.60;;
77012;SDS011;65946;53.130;17.982;2022-12-22T00:12:15;43.70;;;16.10;;
77012;SDS011;65946;53.130;17.982;2022-12-22T00:15:02;40.40;;;14.30;;
77012;SDS011;65946;53.130;17.982;2022-12-22T00:17:49;35.80;;;14.40;;
77012;SDS011;65946;53.130;17.982;2022-12-22T00:20:35;31.10;;;12.70;;
77012;SDS011;65946;53.130;17.982;2022-12-22T00:23:21;44.00;;;17.10;;
77012;SDS011;65946;53.130;17.982;2022-12-22T00:26:06;42.60;;;15.70;;
77012;SDS011;65946;53.130;17.982;2022-12-22T00:28:52;37.60;;;14.50;;
77012;SDS011;65946;53.130;17.982;2022-12-22T00:31:39;41.40;;;15.90;;
77012;SDS011;65946;53.130;17.982;2022-12-22T00:34:25;37.40;;;15.20;;
77012;SDS011;65946;53.130;17.982;2022-12-22T00:37:12;44.20;;;17.20;;
77012;SDS011;65946;53.130;17.982;2022-12-22T00:39:58;57.60;;;22.00;;
77012;SDS011;65946;53.130;17.982;2022-12-22T00:42:45;51.20;;;20.70;;
77012;SDS011;65946;53.130;17.982;2022-12-22T00:45:30;45.40;;;17.30;;
77012;SDS011;65946;53.130;17.982;2022-12-22T00:48:20;46.40;;;18.20;;
77012;SDS011;65946;53.130;17.982;2022-12-22T00:51:08;44.60;;;17.60;;
77012;SDS011;65946;53.130;17.982;2022-12-22T00:53:55;41.20;;;16.10;;
77012;SDS011;65946;53.130;17.982;2022-12-22T00:56:40;51.40;;;20.20;;
77012;SDS011;65946;53.130;17.982;2022-12-22T00:59:26;46.80;;;17.60;;
77012;SDS011;65946;53.130;17.982;2022-12-22T01:02:13;43.80;;;16.80;;
77012;SDS011;65946;53.130;17.982;2022-12-22T01:04:59;41.80;;;15.70;;
77012;SDS011;65946;53.130;17.982;2022-12-22T01:07:44;42.10;;;17.10;;
77012;SDS011;65946;53.130;17.982;2022-12-22T01:10:30;44.80;;;15.70;;
77012;SDS011;65946;53.130;17.982;2022-12-22T01:13:16;41.60;;;16.00;;
77012;SDS011;65946;53.130;17.982;2022-12-22T01:16:01;48.40;;;16.60;;
77012;SDS011;65946;53.130;17.982;2022-12-22T01:18:46;44.30;;;17.30;;
77012;SDS011;65946;53.130;17.982;2022-12-22T01:21:32;38.30;;;15.60;;
77012;SDS011;65946;53.130;17.982;2022-12-22T01:24:17;47.70;;;17.40;;
77012;SDS011;65946;53.130;17.982;2022-12-22T01:27:03;46.80;;;16.70;;
77012;SDS011;65946;53.130;17.982;2022-12-22T01:29:48;48.40;;;16.90;;
77012;SDS011;65946;53.130;17.982;2022-12-22T01:32:34;36.80;;;14.90;;
77012;SDS011;65946;53.130;17.982;2022-12-22T01:35:21;36.50;;;14.90;;
77012;SDS011;65946;53.130;17.982;2022-12-22T01:38:08;37.20;;;13.80;;
77012;SDS011;65946;53.130;17.982;2022-12-22T01:40:54;38.80;;;15.00;;
77012;SDS011;65946;53.130;17.982;2022-12-22T01:43:41;39.10;;;14.40;;
77012;SDS011;65946;53.130;17.982;2022-12-22T01:46:28;33.10;;;14.30;;
77012;SDS011;65946;53.130;17.982;2022-12-22T01:49:20;33.10;;;13.60;;
77012;SDS011;65946;53.130;17.982;2022-12-22T01:52:08;32.90;;;13.80;;
77012;SDS011;65946;53.130;17.982;2022-12-22T01:54:56;32.40;;;13.40;;
77012;SDS011;65946;53.130;17.982;2022-12-22T01:57:47;35.60;;;15.20;;
77012;SDS011;65946;53.130;17.982;2022-12-22T02:00:32;31.20;;;13.90;;
77012;SDS011;65946;53.130;17.982;2022-12-22T02:03:18;30.60;;;13.60;;
77012;SDS011;65946;53.130;17.982;2022-12-22T02:06:11;24.30;;;10.80;;
77012;SDS011;65946;53.130;17.982;2022-12-22T02:09:08;22.90;;;9.70;;
77012;SDS011;65946;53.130;17.982;2022-12-22T02:12:09;28.10;;;12.00;;
77012;SDS011;65946;53.130;17.982;2022-12-22T02:15:14;29.60;;;13.20;;
77012;SDS011;65946;53.130;17.982;2022-12-22T02:18:27;23.30;;;10.50;;
77012;SDS011;65946;53.130;17.982;2022-12-22T02:21:22;34.60;;;13.10;;
77012;SDS011;65946;53.130;17.982;2022-12-22T02:27:11;32.40;;;13.20;;
77012;SDS011;65946;53.130;17.982;2022-12-22T02:29:58;14.20;;;6.20;;
77012;SDS011;65946;53.130;17.982;2022-12-22T02:32:46;29.50;;;12.70;;
77012;SDS011;65946;53.130;17.982;2022-12-22T02:45:09;33.30;;;12.40;;
77012;SDS011;65946;53.130;17.982;2022-12-22T02:48:08;26.50;;;10.90;;
77012;SDS011;65946;53.130;17.982;2022-12-22T02:51:10;32.60;;;13.60;;
77012;SDS011;65946;53.130;17.982;2022-12-22T02:54:01;27.70;;;11.80;;
77012;SDS011;65946;53.130;17.982;2022-12-22T02:56:49;34.60;;;13.50;;
77012;SDS011;65946;53.130;17.982;2022-12-22T02:59:34;31.20;;;13.80;;
77012;SDS011;65946;53.130;17.982;2022-12-22T03:02:20;30.60;;;13.60;;
77012;SDS011;65946;53.130;17.982;2022-12-22T03:05:05;29.30;;;12.90;;
77012;SDS011;65946;53.130;17.982;2022-12-22T03:07:51;26.10;;;12.20;;
77012;SDS011;65946;53.130;17.982;2022-12-22T03:10:36;25.20;;;10.70;;
77012;SDS011;65946;53.130;17.982;2022-12-22T03:13:21;28.50;;;11.20;;
77012;SDS011;65946;53.130;17.982;2022-12-22T03:16:07;29.40;;;11.50;;
77012;SDS011;65946;53.130;17.982;2022-12-22T03:18:52;28.40;;;12.40;;
77012;SDS011;65946;53.130;17.982;2022-12-22T03:21:37;30.20;;;12.30;;
77012;SDS011;65946;53.130;17.982;2022-12-22T03:24:23;24.50;;;11.80;;
77012;SDS011;65946;53.130;17.982;2022-12-22T03:27:08;25.40;;;10.90;;
77012;SDS011;65946;53.130;17.982;2022-12-22T03:29:35;29.90;;;13.30;;
77012;SDS011;65946;53.130;17.982;2022-12-22T03:32:01;23.30;;;10.80;;
77012;SDS011;65946;53.130;17.982;2022-12-22T03:34:28;26.10;;;12.20;;
77012;SDS011;65946;53.130;17.982;2022-12-22T03:36:58;21.00;;;10.10;;
77012;SDS011;65946;53.130;17.982;2022-12-22T03:39:25;24.40;;;11.50;;
77012;SDS011;65946;53.130;17.982;2022-12-22T03:41:52;28.30;;;12.50;;
77012;SDS011;65946;53.130;17.982;2022-12-22T03:44:37;22.50;;;10.60;;
77012;SDS011;65946;53.130;17.982;2022-12-22T03:47:22;24.60;;;11.00;;
77012;SDS011;65946;53.130;17.982;2022-12-22T03:49:49;25.10;;;10.80;;
77012;SDS011;65946;53.130;17.982;2022-12-22T03:52:15;20.20;;;9.70;;
77012;SDS011;65946;53.130;17.982;2022-12-22T03:54:42;20.20;;;9.30;;
77012;SDS011;65946;53.130;17.982;2022-12-22T03:57:09;24.00;;;11.80;;
77012;SDS011;65946;53.130;17.982;2022-12-22T04:02:02;21.10;;;11.30;;
77012;SDS011;65946;53.130;17.982;2022-12-22T04:06:56;29.30;;;12.80;;
77012;SDS011;65946;53.130;17.982;2022-12-22T04:09:23;22.60;;;12.00;;
77012;SDS011;65946;53.130;17.982;2022-12-22T04:11:52;24.20;;;12.10;;
77012;SDS011;65946;53.130;17.982;2022-12-22T04:14:48;23.40;;;11.40;;
77012;SDS011;65946;53.130;17.982;2022-12-22T04:19:41;23.50;;;11.40;;
77012;SDS011;65946;53.130;17.982;2022-12-22T04:22:08;23.80;;;11.20;;
77012;SDS011;65946;53.130;17.982;2022-12-22T04:24:35;21.60;;;9.80;;
77012;SDS011;65946;53.130;17.982;2022-12-22T04:27:01;28.40;;;12.60;;
77012;SDS011;65946;53.130;17.982;2022-12-22T04:29:28;24.60;;;10.70;;
77012;SDS011;65946;53.130;17.982;2022-12-22T04:31:54;22.50;;;10.60;;
77012;SDS011;65946;53.130;17.982;2022-12-22T04:34:21;25.10;;;13.40;;
77012;SDS011;65946;53.130;17.982;2022-12-22T04:36:48;21.80;;;11.00;;
77012;SDS011;65946;53.130;17.982;2022-12-22T04:39:15;25.50;;;12.20;;
77012;SDS011;65946;53.130;17.982;2022-12-22T04:41:41;29.90;;;12.90;;
77012;SDS011;65946;53.130;17.982;2022-12-22T04:44:10;33.50;;;16.30;;
77012;SDS011;65946;53.130;17.982;2022-12-22T04:46:36;31.60;;;15.90;;
77012;SDS011;65946;53.130;17.982;2022-12-22T04:49:03;29.10;;;15.20;;
77012;SDS011;65946;53.130;17.982;2022-12-22T04:53:56;31.80;;;14.50;;
77012;SDS011;65946;53.130;17.982;2022-12-22T04:56:23;32.10;;;14.50;;
77012;SDS011;65946;53.130;17.982;2022-12-22T04:58:50;30.40;;;14.00;;
77012;SDS011;65946;53.130;17.982;2022-12-22T05:01:17;29.60;;;14.50;;
77012;SDS011;65946;53.130;17.982;2022-12-22T05:03:45;26.20;;;12.70;;
77012;SDS011;65946;53.130;17.982;2022-12-22T05:06:12;32.20;;;15.80;;
77012;SDS011;65946;53.130;17.982;2022-12-22T05:08:39;22.10;;;11.00;;
77012;SDS011;65946;53.130;17.982;2022-12-22T05:11:07;21.00;;;11.20;;
77012;SDS011;65946;53.130;17.982;2022-12-22T05:13:33;41.20;;;21.70;;
77012;SDS011;65946;53.130;17.982;2022-12-22T05:16:04;35.50;;;17.90;;
77012;SDS011;65946;53.130;17.982;2022-12-22T05:18:36;34.60;;;17.00;;
77012;SDS011;65946;53.130;17.982;2022-12-22T05:21:06;29.30;;;14.80;;
77012;SDS011;65946;53.130;17.982;2022-12-22T05:23:36;30.50;;;15.30;;
77012;SDS011;65946;53.130;17.982;2022-12-22T05:28:29;26.20;;;12.50;;
77012;SDS011;65946;53.130;17.982;2022-12-22T05:31:01;30.20;;;13.40;;
77012;SDS011;65946;53.130;17.982;2022-12-22T05:33:34;33.20;;;13.60;;
77012;SDS011;65946;53.130;17.982;2022-12-22T05:36:01;29.00;;;12.40;;
77012;SDS011;65946;53.130;17.982;2022-12-22T05:38:28;30.90;;;13.60;;
77012;SDS011;65946;53.130;17.982;2022-12-22T05:43:22;37.30;;;13.80;;
77012;SDS011;65946;53.130;17.982;2022-12-22T05:45:48;37.70;;;14.20;;
77012;SDS011;65946;53.130;17.982;2022-12-22T05:48:15;34.30;;;15.90;;
77012;SDS011;65946;53.130;17.982;2022-12-22T05:50:41;25.90;;;12.00;;
77012;SDS011;65946;53.130;17.982;2022-12-22T05:53:08;32.10;;;13.80;;
77012;SDS011;65946;53.130;17.982;2022-12-22T05:55:35;26.50;;;12.90;;
77012;SDS011;65946;53.130;17.982;2022-12-22T06:00:29;29.20;;;13.70;;
77012;SDS011;65946;53.130;17.982;2022-12-22T06:02:56;28.30;;;13.10;;
77012;SDS011;65946;53.130;17.982;2022-12-22T06:05:24;33.00;;;13.30;;
77012;SDS011;65946;53.130;17.982;2022-12-22T06:07:51;30.80;;;14.10;;
77012;SDS011;65946;53.130;17.982;2022-12-22T06:10:18;33.80;;;12.70;;
77012;SDS011;65946;53.130;17.982;2022-12-22T06:15:12;23.40;;;11.30;;
77012;SDS011;65946;53.130;17.982;2022-12-22T06:17:40;27.30;;;12.90;;
77012;SDS011;65946;53.130;17.982;2022-12-22T06:20:07;30.30;;;12.10;;
77012;SDS011;65946;53.130;17.982;2022-12-22T06:22:34;26.20;;;10.70;;
77012;SDS011;65946;53.130;17.982;2022-12-22T06:27:27;32.30;;;13.20;;
77012;SDS011;65946;53.130;17.982;2022-12-22T06:32:20;30.50;;;12.20;;
77012;SDS011;65946;53.130;17.982;2022-12-22T06:34:47;28.90;;;12.40;;
77012;SDS011;65946;53.130;17.982;2022-12-22T06:37:14;35.70;;;14.60;;
77012;SDS011;65946;53.130;17.982;2022-12-22T06:39:40;33.10;;;13.60;;
77012;SDS011;65946;53.130;17.982;2022-12-22T06:44:53;27.10;;;11.90;;
77012;SDS011;65946;53.130;17.982;2022-12-22T06:47:21;32.20;;;15.10;;
77012;SDS011;65946;53.130;17.982;2022-12-22T06:49:48;33.20;;;16.80;;
77012;SDS011;65946;53.130;17.982;2022-12-22T06:52:15;35.90;;;16.20;;
77012;SDS011;65946;53.130;17.982;2022-12-22T06:57:08;39.00;;;16.10;;
77012;SDS011;65946;53.130;17.982;2022-12-22T06:59:35;35.60;;;16.50;;
77012;SDS011;65946;53.130;17.982;2022-12-22T07:02:02;37.30;;;18.20;;
77012;SDS011;65946;53.130;17.982;2022-12-22T07:04:29;38.10;;;18.20;;
77012;SDS011;65946;53.130;17.982;2022-12-22T07:06:56;30.00;;;13.40;;
77012;SDS011;65946;53.130;17.982;2022-12-22T07:09:23;31.70;;;14.30;;
77012;SDS011;65946;53.130;17.982;2022-12-22T07:11:49;32.40;;;15.50;;
77012;SDS011;65946;53.130;17.982;2022-12-22T07:14:16;29.30;;;14.50;;
77012;SDS011;65946;53.130;17.982;2022-12-22T07:16:42;34.30;;;16.50;;
77012;SDS011;65946;53.130;17.982;2022-12-22T07:19:09;36.70;;;17.10;;
77012;SDS011;65946;53.130;17.982;2022-12-22T07:21:36;33.10;;;16.20;;
77012;SDS011;65946;53.130;17.982;2022-12-22T07:26:30;31.70;;;15.30;;
77012;SDS011;65946;53.130;17.982;2022-12-22T07:28:56;29.70;;;14.70;;
77012;SDS011;65946;53.130;17.982;2022-12-22T07:33:50;32.40;;;15.20;;
77012;SDS011;65946;53.130;17.982;2022-12-22T07:36:18;27.40;;;14.10;;
77012;SDS011;65946;53.130;17.982;2022-12-22T07:38:46;27.50;;;14.70;;
77012;SDS011;65946;53.130;17.982;2022-12-22T07:41:15;30.30;;;15.80;;
77012;SDS011;65946;53.130;17.982;2022-12-22T07:44:02;34.50;;;17.20;;
77012;SDS011;65946;53.130;17.982;2022-12-22T07:46:30;35.00;;;15.80;;
77012;SDS011;65946;53.130;17.982;2022-12-22T07:49:00;28.80;;;15.00;;
77012;SDS011;65946;53.130;17.982;2022-12-22T07:51:45;23.30;;;12.50;;
77012;SDS011;65946;53.130;17.982;2022-12-22T07:54:13;23.50;;;12.90;;
77012;SDS011;65946;53.130;17.982;2022-12-22T07:56:41;42.30;;;19.30;;
77012;SDS011;65946;53.130;17.982;2022-12-22T07:59:09;40.60;;;18.40;;
77012;SDS011;65946;53.130;17.982;2022-12-22T08:01:37;41.10;;;20.70;;
77012;SDS011;65946;53.130;17.982;2022-12-22T08:04:07;35.40;;;17.90;;
77012;SDS011;65946;53.130;17.982;2022-12-22T08:06:34;38.90;;;19.30;;
77012;SDS011;65946;53.130;17.982;2022-12-22T08:09:02;34.00;;;18.20;;
77012;SDS011;65946;53.130;17.982;2022-12-22T08:11:31;31.80;;;16.80;;
77012;SDS011;65946;53.130;17.982;2022-12-22T08:13:58;27.90;;;15.00;;
77012;SDS011;65946;53.130;17.982;2022-12-22T08:18:51;24.80;;;12.60;;
77012;SDS011;65946;53.130;17.982;2022-12-22T08:21:18;20.10;;;10.40;;
77012;SDS011;65946;53.130;17.982;2022-12-22T08:26:17;20.90;;;11.10;;
77012;SDS011;65946;53.130;17.982;2022-12-22T08:32:01;20.90;;;10.70;;
77012;SDS011;65946;53.130;17.982;2022-12-22T08:34:28;21.60;;;11.60;;
77012;SDS011;65946;53.130;17.982;2022-12-22T08:36:57;20.60;;;10.60;;
77012;SDS011;65946;53.130;17.982;2022-12-22T08:39:26;21.70;;;11.90;;
77012;SDS011;65946;53.130;17.982;2022-12-22T08:41:57;21.10;;;11.00;;
77012;SDS011;65946;53.130;17.982;2022-12-22T08:44:26;22.90;;;10.30;;
77012;SDS011;65946;53.130;17.982;2022-12-22T08:46:55;21.50;;;11.40;;
77012;SDS011;65946;53.130;17.982;2022-12-22T08:49:23;20.30;;;10.70;;
77012;SDS011;65946;53.130;17.982;2022-12-22T08:51:52;23.40;;;12.10;;
77012;SDS011;65946;53.130;17.982;2022-12-22T08:54:19;20.50;;;11.10;;
77012;SDS011;65946;53.130;17.982;2022-12-22T08:56:46;15.50;;;8.40;;
77012;SDS011;65946;53.130;17.982;2022-12-22T08:59:15;16.60;;;9.60;;
77012;SDS011;65946;53.130;17.982;2022-12-22T09:01:42;16.70;;;9.70;;
77012;SDS011;65946;53.130;17.982;2022-12-22T09:04:13;21.50;;;11.80;;
77012;SDS011;65946;53.130;17.982;2022-12-22T09:06:42;18.10;;;9.90;;
77012;SDS011;65946;53.130;17.982;2022-12-22T09:09:09;20.70;;;11.70;;
77012;SDS011;65946;53.130;17.982;2022-12-22T09:11:38;18.50;;;10.60;;
77012;SDS011;65946;53.130;17.982;2022-12-22T09:14:06;20.70;;;11.20;;
77012;SDS011;65946;53.130;17.982;2022-12-22T09:16:34;17.20;;;9.60;;
77012;SDS011;65946;53.130;17.982;2022-12-22T09:19:02;22.10;;;12.70;;
77012;SDS011;65946;53.130;17.982;2022-12-22T09:21:29;45.40;;;21.20;;
77012;SDS011;65946;53.130;17.982;2022-12-22T09:23:56;54.90;;;28.30;;
77012;SDS011;65946;53.130;17.982;2022-12-22T09:26:24;27.80;;;15.10;;
77012;SDS011;65946;53.130;17.982;2022-12-22T09:28:52;23.80;;;12.10;;
77012;SDS011;65946;53.130;17.982;2022-12-22T09:31:20;24.20;;;12.50;;
77012;SDS011;65946;53.130;17.982;2022-12-22T09:33:49;19.50;;;11.50;;
77012;SDS011;65946;53.130;17.982;2022-12-22T09:36:17;18.40;;;10.90;;
77012;SDS011;65946;53.130;17.982;2022-12-22T09:38:46;18.90;;;9.60;;
77012;SDS011;65946;53.130;17.982;2022-12-22T09:41:14;16.00;;;9.10;;
77012;SDS011;65946;53.130;17.982;2022-12-22T09:43:44;17.00;;;10.30;;
77012;SDS011;65946;53.130;17.982;2022-12-22T09:46:45;18.00;;;9.90;;
77012;SDS011;65946;53.130;17.982;2022-12-22T09:49:05;18.60;;;11.30;;
77012;SDS011;65946;53.130;17.982;2022-12-22T09:51:33;17.50;;;10.10;;
77012;SDS011;65946;53.130;17.982;2022-12-22T09:54:07;10.90;;;6.80;;
77012;SDS011;65946;53.130;17.982;2022-12-22T09:56:36;15.60;;;9.50;;
77012;SDS011;65946;53.130;17.982;2022-12-22T09:59:13;17.70;;;10.70;;
77012;SDS011;65946;53.130;17.982;2022-12-22T10:05:20;15.20;;;8.50;;
77012;SDS011;65946;53.130;17.982;2022-12-22T10:08:01;13.70;;;9.10;;
77012;SDS011;65946;53.130;17.982;2022-12-22T10:10:36;17.80;;;9.20;;
77012;SDS011;65946;53.130;17.982;2022-12-22T10:13:03;14.70;;;9.00;;
77012;SDS011;65946;53.130;17.982;2022-12-22T10:15:35;18.80;;;10.90;;
77012;SDS011;65946;53.130;17.982;2022-12-22T10:18:10;18.40;;;11.00;;
77012;SDS011;65946;53.130;17.982;2022-12-22T10:28:22;18.50;;;10.10;;
77012;SDS011;65946;53.130;17.982;2022-12-22T10:33:49;13.90;;;7.10;;
77012;SDS011;65946;53.130;17.982;2022-12-22T10:36:25;16.30;;;8.90;;
77012;SDS011;65946;53.130;17.982;2022-12-22T10:39:02;17.10;;;9.80;;
77012;SDS011;65946;53.130;17.982;2022-12-22T10:41:33;20.40;;;11.00;;
77012;SDS011;65946;53.130;17.982;2022-12-22T10:44:03;15.30;;;8.50;;
77012;SDS011;65946;53.130;17.982;2022-12-22T10:49:13;17.70;;;9.80;;
77012;SDS011;65946;53.130;17.982;2022-12-22T10:52:11;16.80;;;9.40;;
77012;SDS011;65946;53.130;17.982;2022-12-22T10:54:38;16.60;;;9.80;;
77012;SDS011;65946;53.130;17.982;2022-12-22T11:02:31;21.70;;;12.00;;
77012;SDS011;65946;53.130;17.982;2022-12-22T11:05:06;18.20;;;10.50;;
77012;SDS011;65946;53.130;17.982;2022-12-22T11:07:42;22.10;;;12.10;;
77012;SDS011;65946;53.130;17.982;2022-12-22T11:15:51;16.20;;;9.50;;
77012;SDS011;65946;53.130;17.982;2022-12-22T11:18:37;19.30;;;10.70;;
77012;SDS011;65946;53.130;17.982;2022-12-22T11:35:08;20.50;;;11.50;;
77012;SDS011;65946;53.130;17.982;2022-12-22T11:37:59;18.30;;;10.00;;
77012;SDS011;65946;53.130;17.982;2022-12-22T11:40:45;20.70;;;10.80;;
77012;SDS011;65946;53.130;17.982;2022-12-22T11:43:23;15.20;;;8.80;;
77012;SDS011;65946;53.130;17.982;2022-12-22T11:46:04;19.70;;;10.60;;
77012;SDS011;65946;53.130;17.982;2022-12-22T11:48:54;25.10;;;13.10;;
77012;SDS011;65946;53.130;17.982;2022-12-22T11:54:45;24.30;;;13.60;;
77012;SDS011;65946;53.130;17.982;2022-12-22T11:57:43;18.50;;;10.70;;
77012;SDS011;65946;53.130;17.982;2022-12-22T12:00:38;19.60;;;11.40;;
77012;SDS011;65946;53.130;17.982;2022-12-22T12:03:33;20.10;;;11.30;;
77012;SDS011;65946;53.130;17.982;2022-12-22T12:06:44;21.70;;;10.90;;
77012;SDS011;65946;53.130;17.982;2022-12-22T12:09:21;20.80;;;11.40;;
77012;SDS011;65946;53.130;17.982;2022-12-22T12:12:04;21.40;;;11.20;;
77012;SDS011;65946;53.130;17.982;2022-12-22T12:17:42;35.00;;;19.70;;
77012;SDS011;65946;53.130;17.982;2022-12-22T12:20:48;30.50;;;14.70;;
77012;SDS011;65946;53.130;17.982;2022-12-22T12:26:24;38.30;;;19.00;;
77012;SDS011;65946;53.130;17.982;2022-12-22T12:31:27;48.90;;;29.40;;
77012;SDS011;65946;53.130;17.982;2022-12-22T12:33:59;33.00;;;18.00;;
77012;SDS011;65946;53.130;17.982;2022-12-22T12:36:42;35.40;;;19.00;;
77012;SDS011;65946;53.130;17.982;2022-12-22T12:44:26;38.40;;;23.30;;
77012;SDS011;65946;53.130;17.982;2022-12-22T12:47:03;36.40;;;25.20;;
77012;SDS011;65946;53.130;17.982;2022-12-22T12:50:02;33.30;;;19.80;;
77012;SDS011;65946;53.130;17.982;2022-12-22T12:55:31;50.00;;;26.10;;
77012;SDS011;65946;53.130;17.982;2022-12-22T12:58:00;51.90;;;25.10;;
77012;SDS011;65946;53.130;17.982;2022-12-22T13:03:09;71.70;;;34.20;;
77012;SDS011;65946;53.130;17.982;2022-12-22T13:05:52;50.20;;;27.10;;
77012;SDS011;65946;53.130;17.982;2022-12-22T13:08:27;48.50;;;24.80;;
77012;SDS011;65946;53.130;17.982;2022-12-22T13:21:08;23.10;;;13.30;;
77012;SDS011;65946;53.130;17.982;2022-12-22T13:23:41;84.60;;;48.60;;
77012;SDS011;65946;53.130;17.982;2022-12-22T13:37:23;32.10;;;19.80;;
77012;SDS011;65946;53.130;17.982;2022-12-22T13:47:54;29.50;;;14.60;;
77012;SDS011;65946;53.130;17.982;2022-12-22T13:50:27;28.80;;;14.80;;
77012;SDS011;65946;53.130;17.982;2022-12-22T13:52:59;35.70;;;18.90;;
77012;SDS011;65946;53.130;17.982;2022-12-22T13:55:30;32.50;;;17.10;;
77012;SDS011;65946;53.130;17.982;2022-12-22T13:58:04;30.80;;;16.90;;
77012;SDS011;65946;53.130;17.982;2022-12-22T14:00:34;37.50;;;18.30;;
77012;SDS011;65946;53.130;17.982;2022-12-22T14:03:01;38.30;;;19.70;;
77012;SDS011;65946;53.130;17.982;2022-12-22T14:05:31;47.70;;;21.10;;
77012;SDS011;65946;53.130;17.982;2022-12-22T14:08:05;80.50;;;30.30;;
77012;SDS011;65946;53.130;17.982;2022-12-22T14:10:40;126.70;;;42.00;;
77012;SDS011;65946;53.130;17.982;2022-12-22T14:13:17;84.90;;;36.10;;
77012;SDS011;65946;53.130;17.982;2022-12-22T14:15:46;97.50;;;35.10;;
77012;SDS011;65946;53.130;17.982;2022-12-22T14:20:41;44.10;;;19.20;;
77012;SDS011;65946;53.130;17.982;2022-12-22T14:23:15;45.40;;;20.60;;
77012;SDS011;65946;53.130;17.982;2022-12-22T14:25:43;56.90;;;27.60;;
77012;SDS011;65946;53.130;17.982;2022-12-22T14:30:49;43.60;;;20.90;;
77012;SDS011;65946;53.130;17.982;2022-12-22T14:35:49;32.10;;;18.00;;
77012;SDS011;65946;53.130;17.982;2022-12-22T14:38:22;33.40;;;18.00;;
77012;SDS011;65946;53.130;17.982;2022-12-22T14:40:54;25.80;;;14.20;;
77012;SDS011;65946;53.130;17.982;2022-12-22T14:43:22;25.30;;;13.30;;
77012;SDS011;65946;53.130;17.982;2022-12-22T14:46:16;24.40;;;13.50;;
77012;SDS011;65946;53.130;17.982;2022-12-22T14:48:44;27.90;;;15.50;;
77012;SDS011;65946;53.130;17.982;2022-12-22T14:51:19;28.00;;;14.30;;
77012;SDS011;65946;53.130;17.982;2022-12-22T14:53:49;38.70;;;19.80;;
77012;SDS011;65946;53.130;17.982;2022-12-22T14:56:18;41.60;;;23.00;;
77012;SDS011;65946;53.130;17.982;2022-12-22T14:58:46;35.50;;;19.40;;
77012;SDS011;65946;53.130;17.982;2022-12-22T15:04:04;37.30;;;18.70;;
77012;SDS011;65946;53.130;17.982;2022-12-22T15:06:33;40.20;;;20.40;;
77012;SDS011;65946;53.130;17.982;2022-12-22T15:11:31;46.70;;;24.60;;
77012;SDS011;65946;53.130;17.982;2022-12-22T15:14:01;34.20;;;18.80;;
77012;SDS011;65946;53.130;17.982;2022-12-22T15:16:29;26.20;;;13.90;;
77012;SDS011;65946;53.130;17.982;2022-12-22T15:18:56;28.40;;;15.20;;
77012;SDS011;65946;53.130;17.982;2022-12-22T15:21:23;28.40;;;14.80;;
77012;SDS011;65946;53.130;17.982;2022-12-22T15:23:50;29.00;;;15.60;;
77012;SDS011;65946;53.130;17.982;2022-12-22T15:26:17;32.10;;;17.50;;
77012;SDS011;65946;53.130;17.982;2022-12-22T15:28:43;23.30;;;12.90;;
77012;SDS011;65946;53.130;17.982;2022-12-22T15:31:11;22.40;;;12.00;;
77012;SDS011;65946;53.130;17.982;2022-12-22T15:33:40;26.10;;;13.60;;
77012;SDS011;65946;53.130;17.982;2022-12-22T15:36:08;30.30;;;16.70;;
77012;SDS011;65946;53.130;17.982;2022-12-22T15:38:37;30.40;;;16.60;;
77012;SDS011;65946;53.130;17.982;2022-12-22T15:41:05;32.90;;;16.00;;
77012;SDS011;65946;53.130;17.982;2022-12-22T15:43:32;38.50;;;18.90;;
77012;SDS011;65946;53.130;17.982;2022-12-22T15:46:01;37.70;;;18.50;;
77012;SDS011;65946;53.130;17.982;2022-12-22T15:48:32;34.70;;;16.70;;
77012;SDS011;65946;53.130;17.982;2022-12-22T15:51:02;29.40;;;14.20;;
77012;SDS011;65946;53.130;17.982;2022-12-22T15:53:33;39.80;;;19.40;;
77012;SDS011;65946;53.130;17.982;2022-12-22T15:56:02;36.90;;;18.20;;
77012;SDS011;65946;53.130;17.982;2022-12-22T15:58:31;43.80;;;22.90;;
77012;SDS011;65946;53.130;17.982;2022-12-22T16:01:00;42.10;;;20.70;;
77012;SDS011;65946;53.130;17.982;2022-12-22T16:03:27;46.70;;;21.60;;
77012;SDS011;65946;53.130;17.982;2022-12-22T16:05:54;35.90;;;18.10;;
77012;SDS011;65946;53.130;17.982;2022-12-22T16:10:52;27.70;;;13.90;;
77012;SDS011;65946;53.130;17.982;2022-12-22T16:15:49;33.10;;;16.40;;
77012;SDS011;65946;53.130;17.982;2022-12-22T16:18:16;28.20;;;14.50;;
77012;SDS011;65946;53.130;17.982;2022-12-22T16:23:12;24.50;;;13.10;;
77012;SDS011;65946;53.130;17.982;2022-12-22T16:25:42;22.50;;;13.20;;
77012;SDS011;65946;53.130;17.982;2022-12-22T16:28:14;35.30;;;17.20;;
77012;SDS011;65946;53.130;17.982;2022-12-22T16:30:45;26.90;;;14.60;;
77012;SDS011;65946;53.130;17.982;2022-12-22T16:33:12;26.00;;;13.40;;
77012;SDS011;65946;53.130;17.982;2022-12-22T16:35:40;24.30;;;14.10;;
77012;SDS011;65946;53.130;17.982;2022-12-22T16:38:07;25.40;;;13.90;;
77012;SDS011;65946;53.130;17.982;2022-12-22T16:40:42;26.10;;;14.10;;
77012;SDS011;65946;53.130;17.982;2022-12-22T16:46:01;19.80;;;11.50;;
77012;SDS011;65946;53.130;17.982;2022-12-22T16:48:38;24.80;;;13.10;;
77012;SDS011;65946;53.130;17.982;2022-12-22T16:51:10;19.00;;;10.40;;
77012;SDS011;65946;53.130;17.982;2022-12-22T16:53:42;24.30;;;13.50;;
77012;SDS011;65946;53.130;17.982;2022-12-22T16:56:16;25.60;;;14.80;;
77012;SDS011;65946;53.130;17.982;2022-12-22T16:58:45;26.80;;;16.00;;
77012;SDS011;65946;53.130;17.982;2022-12-22T17:01:30;29.60;;;15.60;;
77012;SDS011;65946;53.130;17.982;2022-12-22T17:04:10;32.80;;;18.40;;
77012;SDS011;65946;53.130;17.982;2022-12-22T17:06:41;33.50;;;18.50;;
77012;SDS011;65946;53.130;17.982;2022-12-22T17:09:12;42.50;;;21.20;;
77012;SDS011;65946;53.130;17.982;2022-12-22T17:11:46;40.10;;;20.90;;
77012;SDS011;65946;53.130;17.982;2022-12-22T17:14:36;51.30;;;27.40;;
77012;SDS011;65946;53.130;17.982;2022-12-22T17:17:04;32.60;;;18.60;;
77012;SDS011;65946;53.130;17.982;2022-12-22T17:19:32;40.20;;;21.70;;
77012;SDS011;65946;53.130;17.982;2022-12-22T17:21:58;32.80;;;18.10;;
77012;SDS011;65946;53.130;17.982;2022-12-22T17:24:25;27.60;;;16.60;;
77012;SDS011;65946;53.130;17.982;2022-12-22T17:26:53;30.20;;;17.10;;
77012;SDS011;65946;53.130;17.982;2022-12-22T17:29:24;25.80;;;16.00;;
77012;SDS011;65946;53.130;17.982;2022-12-22T17:31:51;24.70;;;14.80;;
77012;SDS011;65946;53.130;17.982;2022-12-22T17:34:21;29.10;;;15.90;;
77012;SDS011;65946;53.130;17.982;2022-12-22T17:39:16;33.40;;;17.00;;
77012;SDS011;65946;53.130;17.982;2022-12-22T17:41:46;27.80;;;15.70;;
77012;SDS011;65946;53.130;17.982;2022-12-22T17:44:16;27.50;;;15.80;;
77012;SDS011;65946;53.130;17.982;2022-12-22T17:46:46;32.90;;;19.20;;